sensor_id;sensor_type;location;lat;lon;timestamp;pressure;altitude;pressure_sealevel;temperature;humidity
9525;BME280;15940;48.734;9.112;2023-02-28T00:01:26;97160.03;;;-3.41;65.80
9525;BME280;15940;48.734;9.112;2023-02-28T00:03:53;97166.09;;;-3.41;65.74
9525;BME280;15940;48.734;9.112;2023-02-28T00:06:20;97169.50;;;-3.48;65.61
9525;BME280;15940;48.734;9.112;2023-02-28T00:08:47;97166.44;;;-3.14;66.92
9525;BME280;15940;48.734;9.112;2023-02-28T00:11:15;97163.44;;;-3.27;64.75
9525;BME280;15940;48.734;9.112;2023-02-28T00:13:47;97167.22;;;-3.35;65.32
9525;BME280;15940;48.734;9.112;2023-02-28T00:16:16;97153.22;;;-3.42;67.07
9525;BME280;15940;48.734;9.112;2023-02-28T00:18:43;97167.25;;;-3.49;65.59
9525;BME280;15940;48.734;9.112;2023-02-28T00:21:10;97161.19;;;-3.39;66.03
9525;BME280;15940;48.734;9.112;2023-02-28T00:23:37;97164.59;;;-3.49;66.12
9525;BME280;15940;48.734;9.112;2023-02-28T00:26:04;97164.94;;;-3.43;67.00
9525;BME280;15940;48.734;9.112;2023-02-28T00:28:31;97158.16;;;-3.59;66.06
9525;BME280;15940;48.734;9.112;2023-02-28T00:31:00;97163.06;;;-3.47;69.11
9525;BME280;15940;48.734;9.112;2023-02-28T00:33:27;97163.06;;;-3.54;67.45
9525;BME280;15940;48.734;9.112;2023-02-28T00:36:03;97165.31;;;-3.52;66.82
9525;BME280;15940;48.734;9.112;2023-02-28T00:38:30;97164.56;;;-3.53;66.58
9525;BME280;15940;48.734;9.112;2023-02-28T00:40:57;97163.03;;;-3.61;66.64
9525;BME280;15940;48.734;9.112;2023-02-28T00:43:31;97166.09;;;-3.66;66.92
9525;BME280;15940;48.734;9.112;2023-02-28T00:45:59;97164.94;;;-3.76;67.17
9525;BME280;15940;48.734;9.112;2023-02-28T00:48:26;97160.75;;;-3.80;66.98
9525;BME280;15940;48.734;9.112;2023-02-28T00:50:53;97159.63;;;-3.72;68.43
9525;BME280;15940;48.734;9.112;2023-02-28T00:53:21;97157.75;;;-3.71;68.60
9525;BME280;15940;48.734;9.112;2023-02-28T00:55:49;97162.31;;;-3.43;68.94
9525;BME280;15940;48.734;9.112;2023-02-28T00:58:16;97160.03;;;-3.49;68.93
9525;BME280;15940;48.734;9.112;2023-02-28T01:00:42;97163.03;;;-3.61;67.62
9525;BME280;15940;48.734;9.112;2023-02-28T01:03:16;97153.59;;;-3.55;69.79
9525;BME280;15940;48.734;9.112;2023-02-28T01:05:43;97164.19;;;-3.55;68.16
9525;BME280;15940;48.734;9.112;2023-02-28T01:08:10;97163.06;;;-3.54;68.18
9525;BME280;15940;48.734;9.112;2023-02-28T01:10:37;97157.38;;;-3.63;68.00
9525;BME280;15940;48.734;9.112;2023-02-28T01:13:05;97155.88;;;-3.57;69.39
9525;BME280;15940;48.734;9.112;2023-02-28T01:15:32;97163.03;;;-3.71;68.14
9525;BME280;15940;48.734;9.112;2023-02-28T01:17:59;97155.50;;;-3.48;69.43
9525;BME280;15940;48.734;9.112;2023-02-28T01:20:27;97154.38;;;-3.68;68.20
9525;BME280;15940;48.734;9.112;2023-02-28T01:22:54;97158.50;;;-3.71;68.26
9525;BME280;15940;48.734;9.112;2023-02-28T01:25:21;97157.38;;;-3.81;69.13
9525;BME280;15940;48.734;9.112;2023-02-28T01:27:48;97155.47;;;-3.87;69.63
9525;BME280;15940;48.734;9.112;2023-02-28T01:30:15;97150.16;;;-3.91;70.07
9525;BME280;15940;48.734;9.112;2023-02-28T01:32:42;97152.44;;;-3.96;70.10
9525;BME280;15940;48.734;9.112;2023-02-28T01:35:09;97145.66;;;-3.97;69.81
9525;BME280;15940;48.734;9.112;2023-02-28T01:37:38;97149.81;;;-3.82;69.25
9525;BME280;15940;48.734;9.112;2023-02-28T01:40:06;97150.94;;;-3.90;70.28
9525;BME280;15940;48.734;9.112;2023-02-28T01:42:33;97156.22;;;-3.83;71.13
9525;BME280;15940;48.734;9.112;2023-02-28T01:45:14;97155.13;;;-3.79;70.94
9525;BME280;15940;48.734;9.112;2023-02-28T01:47:44;97143.00;;;-3.87;71.79
9525;BME280;15940;48.734;9.112;2023-02-28T01:50:15;97149.44;;;-3.88;70.08
9525;BME280;15940;48.734;9.112;2023-02-28T01:52:45;97140.34;;;-3.94;70.43
9525;BME280;15940;48.734;9.112;2023-02-28T01:55:15;97144.50;;;-3.82;71.28
9525;BME280;15940;48.734;9.112;2023-02-28T01:57:46;97140.34;;;-3.90;71.50
9525;BME280;15940;48.734;9.112;2023-02-28T02:00:18;97135.81;;;-3.83;71.29
9525;BME280;15940;48.734;9.112;2023-02-28T02:02:49;97129.00;;;-3.73;70.87
9525;BME280;15940;48.734;9.112;2023-02-28T02:05:20;97129.41;;;-3.64;71.31
9525;BME280;15940;48.734;9.112;2023-02-28T02:07:51;97132.03;;;-3.35;70.40
9525;BME280;15940;48.734;9.112;2023-02-28T02:10:30;97128.25;;;-3.45;69.86
9525;BME280;15940;48.734;9.112;2023-02-28T02:13:11;97117.31;;;-3.68;70.21
9525;BME280;15940;48.734;9.112;2023-02-28T02:15:55;97127.16;;;-3.58;72.12
9525;BME280;15940;48.734;9.112;2023-02-28T02:18:33;97115.41;;;-3.47;71.05
9525;BME280;15940;48.734;9.112;2023-02-28T02:22:02;97112.75;;;-3.57;70.79
9525;BME280;15940;48.734;9.112;2023-02-28T02:25:12;97113.13;;;-3.45;72.35
9525;BME280;15940;48.734;9.112;2023-02-28T02:27:59;97112.38;;;-3.45;71.53
9525;BME280;15940;48.734;9.112;2023-02-28T02:30:52;97109.72;;;-3.70;71.29
9525;BME280;15940;48.734;9.112;2023-02-28T02:34:13;97113.88;;;-3.62;71.89
9525;BME280;15940;48.734;9.112;2023-02-28T02:36:50;97104.44;;;-3.63;71.21
9525;BME280;15940;48.734;9.112;2023-02-28T02:39:24;97102.94;;;-3.57;71.79
9525;BME280;15940;48.734;9.112;2023-02-28T02:42:00;97110.50;;;-3.73;72.02
9525;BME280;15940;48.734;9.112;2023-02-28T02:44:33;97102.94;;;-3.85;72.42
9525;BME280;15940;48.734;9.112;2023-02-28T02:47:08;97110.50;;;-3.77;73.36
9525;BME280;15940;48.734;9.112;2023-02-28T02:49:39;97107.47;;;-3.68;73.05
9525;BME280;15940;48.734;9.112;2023-02-28T02:52:11;97105.97;;;-3.65;73.36
9525;BME280;15940;48.734;9.112;2023-02-28T02:54:43;97107.84;;;-3.55;74.43
9525;BME280;15940;48.734;9.112;2023-02-28T02:57:15;97107.09;;;-3.49;73.40
9525;BME280;15940;48.734;9.112;2023-02-28T02:59:44;97107.81;;;-3.45;73.41
9525;BME280;15940;48.734;9.112;2023-02-28T03:02:14;97112.38;;;-3.38;72.61
9525;BME280;15940;48.734;9.112;2023-02-28T03:04:48;97108.59;;;-3.51;73.02
9525;BME280;15940;48.734;9.112;2023-02-28T03:07:18;97114.25;;;-3.53;73.58
9525;BME280;15940;48.734;9.112;2023-02-28T03:09:51;97118.06;;;-3.47;73.05
9525;BME280;15940;48.734;9.112;2023-02-28T03:12:18;97109.34;;;-3.54;72.96
9525;BME280;15940;48.734;9.112;2023-02-28T03:14:56;97107.47;;;-3.54;73.68
9525;BME280;15940;48.734;9.112;2023-02-28T03:17:50;97122.97;;;-3.45;73.94
9525;BME280;15940;48.734;9.112;2023-02-28T03:20:35;97116.16;;;-3.42;73.23
9525;BME280;15940;48.734;9.112;2023-02-28T03:23:14;97119.94;;;-3.29;73.96
9525;BME280;15940;48.734;9.112;2023-02-28T03:25:54;97115.38;;;-3.32;74.43
9525;BME280;15940;48.734;9.112;2023-02-28T03:28:31;97118.03;;;-3.36;73.57
9525;BME280;15940;48.734;9.112;2023-02-28T03:31:09;97118.03;;;-3.43;73.67
9525;BME280;15940;48.734;9.112;2023-02-28T03:33:43;97112.34;;;-3.34;74.78
9525;BME280;15940;48.734;9.112;2023-02-28T03:36:25;97105.56;;;-3.39;73.69
9525;BME280;15940;48.734;9.112;2023-02-28T03:38:57;97104.41;;;-3.31;74.07
9525;BME280;15940;48.734;9.112;2023-02-28T03:41:32;97107.44;;;-3.36;74.10
9525;BME280;15940;48.734;9.112;2023-02-28T03:44:07;97103.28;;;-3.30;74.15
9525;BME280;15940;48.734;9.112;2023-02-28T03:46:46;97103.25;;;-3.23;74.00
9525;BME280;15940;48.734;9.112;2023-02-28T03:49:18;97109.34;;;-3.29;74.29
9525;BME280;15940;48.734;9.112;2023-02-28T03:51:50;97104.41;;;-3.31;74.62
9525;BME280;15940;48.734;9.112;2023-02-28T03:54:22;97102.88;;;-3.32;74.31
9525;BME280;15940;48.734;9.112;2023-02-28T03:56:56;97103.63;;;-3.24;74.54
9525;BME280;15940;48.734;9.112;2023-02-28T03:59:30;97100.97;;;-3.17;74.16
9525;BME280;15940;48.734;9.112;2023-02-28T04:02:00;97094.56;;;-3.27;74.07
9525;BME280;15940;48.734;9.112;2023-02-28T04:04:28;97102.13;;;-3.18;74.29
9525;BME280;15940;48.734;9.112;2023-02-28T04:07:06;97103.59;;;-3.13;74.18
9525;BME280;15940;48.734;9.112;2023-02-28T04:09:33;97111.97;;;-3.19;74.00
9525;BME280;15940;48.734;9.112;2023-02-28T04:12:00;97109.31;;;-3.22;74.64
9525;BME280;15940;48.734;9.112;2023-02-28T04:14:27;97111.94;;;-3.15;74.00
9525;BME280;15940;48.734;9.112;2023-02-28T04:16:54;97110.44;;;-3.16;75.75
9525;BME280;15940;48.734;9.112;2023-02-28T04:19:21;97112.28;;;-2.95;75.64
9525;BME280;15940;48.734;9.112;2023-02-28T04:21:49;97107.41;;;-3.11;73.81
9525;BME280;15940;48.734;9.112;2023-02-28T04:24:20;97110.03;;;-3.00;75.61
9525;BME280;15940;48.734;9.112;2023-02-28T04:26:50;97112.66;;;-2.97;74.73
9525;BME280;15940;48.734;9.112;2023-02-28T04:29:21;97114.16;;;-2.96;74.45
9525;BME280;15940;48.734;9.112;2023-02-28T04:31:48;97107.78;;;-3.09;75.90
9525;BME280;15940;48.734;9.112;2023-02-28T04:34:15;97104.38;;;-3.17;74.58
9525;BME280;15940;48.734;9.112;2023-02-28T04:36:44;97104.00;;;-3.15;75.26
9525;BME280;15940;48.734;9.112;2023-02-28T04:39:14;97100.59;;;-3.16;75.25
9525;BME280;15940;48.734;9.112;2023-02-28T04:41:44;97105.91;;;-3.19;75.28
9525;BME280;15940;48.734;9.112;2023-02-28T04:44:11;97107.06;;;-3.20;74.89
9525;BME280;15940;48.734;9.112;2023-02-28T04:46:38;97108.56;;;-3.26;75.25
9525;BME280;15940;48.734;9.112;2023-02-28T04:49:05;97104.78;;;-3.29;75.36
9525;BME280;15940;48.734;9.112;2023-02-28T04:51:31;97108.19;;;-3.28;75.31
9525;BME280;15940;48.734;9.112;2023-02-28T04:53:58;97103.25;;;-3.19;75.53
9525;BME280;15940;48.734;9.112;2023-02-28T04:56:25;97108.91;;;-3.06;76.52
9525;BME280;15940;48.734;9.112;2023-02-28T04:58:53;97103.63;;;-3.17;74.80
9525;BME280;15940;48.734;9.112;2023-02-28T05:01:23;97104.38;;;-3.17;74.85
9525;BME280;15940;48.734;9.112;2023-02-28T05:03:53;97097.94;;;-3.16;76.10
9525;BME280;15940;48.734;9.112;2023-02-28T05:06:21;97101.38;;;-3.22;74.86
9525;BME280;15940;48.734;9.112;2023-02-28T05:08:49;97099.84;;;-3.20;75.62
9525;BME280;15940;48.734;9.112;2023-02-28T05:11:19;97097.59;;;-3.25;75.79
9525;BME280;15940;48.734;9.112;2023-02-28T05:13:47;97092.66;;;-3.19;75.82
9525;BME280;15940;48.734;9.112;2023-02-28T05:16:16;97101.38;;;-3.26;75.06
9525;BME280;15940;48.734;9.112;2023-02-28T05:18:43;97108.19;;;-3.25;74.97
9525;BME280;15940;48.734;9.112;2023-02-28T05:21:27;97104.78;;;-3.25;75.97
9525;BME280;15940;48.734;9.112;2023-02-28T05:23:55;97107.78;;;-3.12;76.57
9525;BME280;15940;48.734;9.112;2023-02-28T05:26:24;97110.44;;;-3.16;76.11
9525;BME280;15940;48.734;9.112;2023-02-28T05:28:51;97113.47;;;-3.18;75.96
9525;BME280;15940;48.734;9.112;2023-02-28T05:31:19;97123.31;;;-3.11;75.80
9525;BME280;15940;48.734;9.112;2023-02-28T05:33:46;97124.44;;;-3.16;76.70
9525;BME280;15940;48.734;9.112;2023-02-28T05:36:13;97108.53;;;-3.16;76.11
9525;BME280;15940;48.734;9.112;2023-02-28T05:38:40;97113.81;;;-3.05;76.43
9525;BME280;15940;48.734;9.112;2023-02-28T05:41:08;97110.81;;;-3.14;76.21
9525;BME280;15940;48.734;9.112;2023-02-28T05:43:37;97121.41;;;-3.07;76.69
9525;BME280;15940;48.734;9.112;2023-02-28T05:46:05;97115.72;;;-3.05;76.50
9525;BME280;15940;48.734;9.112;2023-02-28T05:48:35;97119.13;;;-3.01;77.12
9525;BME280;15940;48.734;9.112;2023-02-28T05:51:03;97123.69;;;-3.09;76.04
9525;BME280;15940;48.734;9.112;2023-02-28T05:53:31;97119.13;;;-3.08;77.00
9525;BME280;15940;48.734;9.112;2023-02-28T05:55:58;97118.75;;;-3.10;76.81
9525;BME280;15940;48.734;9.112;2023-02-28T05:58:25;97119.50;;;-3.13;77.24
9525;BME280;15940;48.734;9.112;2023-02-28T06:00:56;97113.84;;;-3.16;76.89
9525;BME280;15940;48.734;9.112;2023-02-28T06:03:23;97111.56;;;-3.17;76.82
9525;BME280;15940;48.734;9.112;2023-02-28T06:05:51;97121.41;;;-3.18;77.22
9525;BME280;15940;48.734;9.112;2023-02-28T06:08:18;97120.66;;;-3.14;77.79
9525;BME280;15940;48.734;9.112;2023-02-28T06:10:45;97125.19;;;-3.08;77.55
9525;BME280;15940;48.734;9.112;2023-02-28T06:13:12;97121.00;;;-3.02;77.34
9525;BME280;15940;48.734;9.112;2023-02-28T06:15:39;97124.78;;;-2.92;79.13
9525;BME280;15940;48.734;9.112;2023-02-28T06:18:06;97124.38;;;-2.83;77.63
9525;BME280;15940;48.734;9.112;2023-02-28T06:20:33;97123.63;;;-2.91;77.00
9525;BME280;15940;48.734;9.112;2023-02-28T06:23:03;97135.03;;;-3.01;77.23
9525;BME280;15940;48.734;9.112;2023-02-28T06:25:30;97133.50;;;-2.99;77.87
9525;BME280;15940;48.734;9.112;2023-02-28T06:27:57;97139.16;;;-2.90;78.24
9525;BME280;15940;48.734;9.112;2023-02-28T06:30:24;97146.34;;;-2.83;78.42
9525;BME280;15940;48.734;9.112;2023-02-28T06:32:53;97151.22;;;-2.74;77.88
9525;BME280;15940;48.734;9.112;2023-02-28T06:35:20;97147.44;;;-2.73;77.60
9525;BME280;15940;48.734;9.112;2023-02-28T06:37:47;97152.00;;;-2.74;77.54
9525;BME280;15940;48.734;9.112;2023-02-28T06:40:15;97163.31;;;-2.66;76.52
9525;BME280;15940;48.734;9.112;2023-02-28T06:42:42;97159.16;;;-2.71;77.27
9525;BME280;15940;48.734;9.112;2023-02-28T06:45:10;97159.19;;;-2.74;77.74
9525;BME280;15940;48.734;9.112;2023-02-28T06:47:39;97153.09;;;-2.68;77.53
9525;BME280;15940;48.734;9.112;2023-02-28T06:50:09;97155.75;;;-2.68;77.19
9525;BME280;15940;48.734;9.112;2023-02-28T06:52:36;97149.28;;;-2.60;77.58
9525;BME280;15940;48.734;9.112;2023-02-28T06:55:05;97157.22;;;-2.52;76.40
9525;BME280;15940;48.734;9.112;2023-02-28T06:57:35;97157.97;;;-2.52;75.69
9525;BME280;15940;48.734;9.112;2023-02-28T07:00:06;97156.81;;;-2.47;77.26
9525;BME280;15940;48.734;9.112;2023-02-28T07:02:34;97153.72;;;-2.39;75.46
9525;BME280;15940;48.734;9.112;2023-02-28T07:05:01;97156.09;;;-2.55;75.19
9525;BME280;15940;48.734;9.112;2023-02-28T07:07:28;97160.28;;;-2.65;75.48
9525;BME280;15940;48.734;9.112;2023-02-28T07:09:55;97169.34;;;-2.55;76.22
9525;BME280;15940;48.734;9.112;2023-02-28T07:12:22;97177.31;;;-2.55;74.79
9525;BME280;15940;48.734;9.112;2023-02-28T07:14:50;97186.03;;;-2.54;75.47
9525;BME280;15940;48.734;9.112;2023-02-28T07:17:17;97171.22;;;-2.52;75.60
9525;BME280;15940;48.734;9.112;2023-02-28T07:19:44;97172.75;;;-2.51;75.13
9525;BME280;15940;48.734;9.112;2023-02-28T07:22:11;97178.03;;;-2.51;74.07
9525;BME280;15940;48.734;9.112;2023-02-28T07:24:38;97175.75;;;-2.49;74.05
9525;BME280;15940;48.734;9.112;2023-02-28T07:27:05;97175.00;;;-2.46;74.05
9525;BME280;15940;48.734;9.112;2023-02-28T07:29:32;97165.94;;;-2.52;73.17
9525;BME280;15940;48.734;9.112;2023-02-28T07:32:00;97173.09;;;-2.42;73.51
9525;BME280;15940;48.734;9.112;2023-02-28T07:34:27;97172.31;;;-2.42;73.55
9525;BME280;15940;48.734;9.112;2023-02-28T07:36:54;97174.56;;;-2.34;72.87
9525;BME280;15940;48.734;9.112;2023-02-28T07:39:22;97179.50;;;-2.32;73.67
9525;BME280;15940;48.734;9.112;2023-02-28T07:41:49;97175.31;;;-2.26;74.04
9525;BME280;15940;48.734;9.112;2023-02-28T07:44:16;97174.91;;;-2.28;72.44
9525;BME280;15940;48.734;9.112;2023-02-28T07:46:43;97188.56;;;-2.26;72.19
9525;BME280;15940;48.734;9.112;2023-02-28T07:49:11;97175.66;;;-2.27;72.36
9525;BME280;15940;48.734;9.112;2023-02-28T07:51:38;97177.19;;;-2.26;72.02
9525;BME280;15940;48.734;9.112;2023-02-28T07:54:05;97180.56;;;-2.15;72.69
9525;BME280;15940;48.734;9.112;2023-02-28T07:56:32;97186.63;;;-2.15;71.69
9525;BME280;15940;48.734;9.112;2023-02-28T07:58:59;97184.31;;;-2.13;71.94
9525;BME280;15940;48.734;9.112;2023-02-28T08:01:27;97180.91;;;-2.13;71.76
9525;BME280;15940;48.734;9.112;2023-02-28T08:03:54;97182.03;;;-2.11;71.31
9525;BME280;15940;48.734;9.112;2023-02-28T08:06:24;97182.78;;;-2.07;71.15
9525;BME280;15940;48.734;9.112;2023-02-28T08:08:53;97187.72;;;-2.09;71.65
9525;BME280;15940;48.734;9.112;2023-02-28T08:11:21;97197.19;;;-2.04;71.66
9525;BME280;15940;48.734;9.112;2023-02-28T08:13:48;97200.19;;;-1.98;70.14
9525;BME280;15940;48.734;9.112;2023-02-28T08:16:16;97201.66;;;-1.90;70.74
9525;BME280;15940;48.734;9.112;2023-02-28T08:18:48;97202.78;;;-1.91;70.25
9525;BME280;15940;48.734;9.112;2023-02-28T08:21:15;97194.50;;;-2.01;69.42
9525;BME280;15940;48.734;9.112;2023-02-28T08:23:43;97194.50;;;-2.01;70.71
9525;BME280;15940;48.734;9.112;2023-02-28T08:26:10;97194.44;;;-1.90;70.44
9525;BME280;15940;48.734;9.112;2023-02-28T08:28:37;97194.03;;;-1.85;70.82
9525;BME280;15940;48.734;9.112;2023-02-28T08:31:08;97190.16;;;-1.69;70.06
9525;BME280;15940;48.734;9.112;2023-02-28T08:33:36;97195.47;;;-1.69;69.56
9525;BME280;15940;48.734;9.112;2023-02-28T08:36:06;97189.03;;;-1.72;69.43
9525;BME280;15940;48.734;9.112;2023-02-28T08:38:33;97202.66;;;-1.66;69.53
9525;BME280;15940;48.734;9.112;2023-02-28T08:41:04;97207.53;;;-1.58;68.71
9525;BME280;15940;48.734;9.112;2023-02-28T08:43:33;97192.75;;;-1.62;69.30
9525;BME280;15940;48.734;9.112;2023-02-28T08:46:00;97193.84;;;-1.56;69.50
9525;BME280;15940;48.734;9.112;2023-02-28T08:48:29;97195.34;;;-1.52;69.26
9525;BME280;15940;48.734;9.112;2023-02-28T08:50:57;97196.03;;;-1.40;69.06
9525;BME280;15940;48.734;9.112;2023-02-28T08:53:24;97210.03;;;-1.36;68.25
9525;BME280;15940;48.734;9.112;2023-02-28T08:55:59;97205.91;;;-1.45;67.80
9525;BME280;15940;48.734;9.112;2023-02-28T08:58:28;97217.69;;;-1.42;68.21
9525;BME280;15940;48.734;9.112;2023-02-28T09:00:56;97213.19;;;-1.52;68.20
9525;BME280;15940;48.734;9.112;2023-02-28T09:03:24;97204.81;;;-1.47;69.35
9525;BME280;15940;48.734;9.112;2023-02-28T09:05:54;97218.75;;;-1.36;68.15
9525;BME280;15940;48.734;9.112;2023-02-28T09:08:22;97213.44;;;-1.32;67.96
9525;BME280;15940;48.734;9.112;2023-02-28T09:10:50;97224.44;;;-1.34;68.60
9525;BME280;15940;48.734;9.112;2023-02-28T09:13:17;97215.66;;;-1.27;68.50
9525;BME280;15940;48.734;9.112;2023-02-28T09:15:46;97213.03;;;-1.31;67.82
9525;BME280;15940;48.734;9.112;2023-02-28T09:18:14;97214.56;;;-1.30;67.69
9525;BME280;15940;48.734;9.112;2023-02-28T09:20:41;97224.38;;;-1.27;67.60
9525;BME280;15940;48.734;9.112;2023-02-28T09:23:11;97223.59;;;-1.20;67.42
9525;BME280;15940;48.734;9.112;2023-02-28T09:25:44;97223.16;;;-1.15;67.49
9525;BME280;15940;48.734;9.112;2023-02-28T09:28:12;97222.75;;;-1.10;67.54
9525;BME280;15940;48.734;9.112;2023-02-28T09:30:39;97222.31;;;-1.05;67.18
9525;BME280;15940;48.734;9.112;2023-02-28T09:33:08;97229.91;;;-1.03;66.66
9525;BME280;15940;48.734;9.112;2023-02-28T09:35:35;97221.50;;;-0.95;67.07
9525;BME280;15940;48.734;9.112;2023-02-28T09:38:04;97225.66;;;-0.97;66.37
9525;BME280;15940;48.734;9.112;2023-02-28T09:40:37;97225.72;;;-1.01;66.96
9525;BME280;15940;48.734;9.112;2023-02-28T09:43:05;97240.84;;;-0.94;66.97
9525;BME280;15940;48.734;9.112;2023-02-28T09:45:36;97236.66;;;-0.95;67.01
9525;BME280;15940;48.734;9.112;2023-02-28T09:48:10;97242.56;;;-0.73;66.98
9525;BME280;15940;48.734;9.112;2023-02-28T09:50:41;97232.97;;;-0.64;65.42
9525;BME280;15940;48.734;9.112;2023-02-28T09:53:19;97236.78;;;-0.65;64.84
9525;BME280;15940;48.734;9.112;2023-02-28T09:55:52;97239.41;;;-0.61;65.43
9525;BME280;15940;48.734;9.112;2023-02-28T09:58:28;97240.91;;;-0.60;65.78
9525;BME280;15940;48.734;9.112;2023-02-28T10:01:03;97237.31;;;-0.43;64.58
9525;BME280;15940;48.734;9.112;2023-02-28T10:03:39;97237.81;;;-0.21;65.37
9525;BME280;15940;48.734;9.112;2023-02-28T10:06:12;97238.38;;;-0.03;64.06
9525;BME280;15940;48.734;9.112;2023-02-28T10:08:49;97236.66;;;-0.16;63.32
9525;BME280;15940;48.734;9.112;2023-02-28T10:11:20;97242.06;;;-0.23;63.26
9525;BME280;15940;48.734;9.112;2023-02-28T10:13:56;97245.94;;;-0.32;64.08
9525;BME280;15940;48.734;9.112;2023-02-28T10:16:32;97247.09;;;-0.33;63.21
9525;BME280;15940;48.734;9.112;2023-02-28T10:19:05;97250.09;;;-0.27;64.57
9525;BME280;15940;48.734;9.112;2023-02-28T10:21:38;97261.25;;;-0.05;63.43
9525;BME280;15940;48.734;9.112;2023-02-28T10:24:19;97254.34;;;-0.03;63.25
9525;BME280;15940;48.734;9.112;2023-02-28T10:26:48;97267.41;;;0.19;62.98
9525;BME280;15940;48.734;9.112;2023-02-28T10:29:15;97263.38;;;0.07;62.51
9525;BME280;15940;48.734;9.112;2023-02-28T10:31:42;97259.13;;;0.13;63.84
9525;BME280;15940;48.734;9.112;2023-02-28T10:34:13;97251.84;;;0.17;62.69
9525;BME280;15940;48.734;9.112;2023-02-28T10:36:41;97251.84;;;0.17;62.61
9525;BME280;15940;48.734;9.112;2023-02-28T10:39:35;97252.75;;;0.34;61.78
9525;BME280;15940;48.734;9.112;2023-02-28T10:42:03;97255.78;;;0.36;62.36
9525;BME280;15940;48.734;9.112;2023-02-28T10:44:30;97259.00;;;0.51;61.95
9525;BME280;15940;48.734;9.112;2023-02-28T10:46:57;97251.28;;;0.60;61.09
9525;BME280;15940;48.734;9.112;2023-02-28T10:49:27;97246.13;;;0.73;62.21
9525;BME280;15940;48.734;9.112;2023-02-28T10:51:57;97264.41;;;1.21;61.12
9525;BME280;15940;48.734;9.112;2023-02-28T10:54:30;97256.31;;;1.05;59.58
9525;BME280;15940;48.734;9.112;2023-02-28T10:57:15;97249.06;;;1.05;60.87
9525;BME280;15940;48.734;9.112;2023-02-28T10:59:43;97262.50;;;1.22;59.56
9525;BME280;15940;48.734;9.112;2023-02-28T11:02:32;97258.63;;;1.03;59.44
9525;BME280;15940;48.734;9.112;2023-02-28T11:05:00;97255.66;;;1.21;61.07
9525;BME280;15940;48.734;9.112;2023-02-28T11:07:28;97250.13;;;1.31;59.09
9525;BME280;15940;48.734;9.112;2023-02-28T11:09:56;97259.88;;;1.41;59.72
9525;BME280;15940;48.734;9.112;2023-02-28T11:12:27;97253.47;;;1.59;58.32
9525;BME280;15940;48.734;9.112;2023-02-28T11:14:58;97249.25;;;1.61;57.45
9525;BME280;15940;48.734;9.112;2023-02-28T11:17:29;97252.88;;;1.71;58.37
9525;BME280;15940;48.734;9.112;2023-02-28T11:20:01;97256.22;;;1.75;58.61
9525;BME280;15940;48.734;9.112;2023-02-28T11:22:34;97252.72;;;1.98;56.97
9525;BME280;15940;48.734;9.112;2023-02-28T11:25:13;97258.03;;;1.82;57.26
9525;BME280;15940;48.734;9.112;2023-02-28T11:27:47;97261.81;;;1.61;58.16
9525;BME280;15940;48.734;9.112;2023-02-28T11:30:34;97255.78;;;1.37;59.15
9525;BME280;15940;48.734;9.112;2023-02-28T11:33:23;97250.97;;;1.28;59.24
9525;BME280;15940;48.734;9.112;2023-02-28T11:36:00;97247.84;;;1.33;60.60
9525;BME280;15940;48.734;9.112;2023-02-28T11:38:27;97252.09;;;1.51;60.03
9525;BME280;15940;48.734;9.112;2023-02-28T11:41:09;97248.47;;;1.61;58.80
9525;BME280;15940;48.734;9.112;2023-02-28T11:44:05;97245.88;;;1.77;57.94
9525;BME280;15940;48.734;9.112;2023-02-28T11:46:40;97248.56;;;1.97;57.83
9525;BME280;15940;48.734;9.112;2023-02-28T11:49:30;97254.25;;;1.79;56.43
9525;BME280;15940;48.734;9.112;2023-02-28T11:52:02;97249.25;;;1.61;57.62
9525;BME280;15940;48.734;9.112;2023-02-28T11:54:49;97242.19;;;2.11;57.45
9525;BME280;15940;48.734;9.112;2023-02-28T11:57:38;97233.34;;;2.50;55.74
9525;BME280;15940;48.734;9.112;2023-02-28T12:00:29;97228.69;;;2.70;55.43
9525;BME280;15940;48.734;9.112;2023-02-28T12:03:11;97226.25;;;3.25;54.12
9525;BME280;15940;48.734;9.112;2023-02-28T12:05:45;97223.47;;;3.57;53.52
9525;BME280;15940;48.734;9.112;2023-02-28T12:08:29;97220.16;;;3.82;52.58
9525;BME280;15940;48.734;9.112;2023-02-28T12:11:13;97222.16;;;4.20;53.46
9525;BME280;15940;48.734;9.112;2023-02-28T12:13:53;97218.59;;;4.10;52.22
9525;BME280;15940;48.734;9.112;2023-02-28T12:16:47;97215.38;;;4.15;53.38
9525;BME280;15940;48.734;9.112;2023-02-28T12:19:22;97222.38;;;4.38;52.67
9525;BME280;15940;48.734;9.112;2023-02-28T12:22:12;97214.56;;;4.56;51.64
9525;BME280;15940;48.734;9.112;2023-02-28T12:25:13;97212.09;;;4.49;50.56
9525;BME280;15940;48.734;9.112;2023-02-28T12:27:48;97217.78;;;3.84;52.67
9525;BME280;15940;48.734;9.112;2023-02-28T12:30:20;97211.81;;;3.93;52.70
9525;BME280;15940;48.734;9.112;2023-02-28T12:32:52;97210.50;;;3.85;51.89
9525;BME280;15940;48.734;9.112;2023-02-28T12:35:25;97217.19;;;4.06;52.98
9525;BME280;15940;48.734;9.112;2023-02-28T12:37:58;97213.25;;;4.36;51.85
9525;BME280;15940;48.734;9.112;2023-02-28T12:40:43;97209.50;;;4.20;52.27
9525;BME280;15940;48.734;9.112;2023-02-28T12:43:14;97203.50;;;4.42;50.32
9525;BME280;15940;48.734;9.112;2023-02-28T12:45:46;97200.28;;;4.47;50.47
9525;BME280;15940;48.734;9.112;2023-02-28T12:48:20;97197.38;;;4.67;51.20
9525;BME280;15940;48.734;9.112;2023-02-28T12:50:48;97195.63;;;4.73;51.02
9525;BME280;15940;48.734;9.112;2023-02-28T12:53:23;97195.84;;;4.78;50.20
9525;BME280;15940;48.734;9.112;2023-02-28T12:56:03;97193.47;;;4.93;50.63
9525;BME280;15940;48.734;9.112;2023-02-28T12:58:38;97187.06;;;4.78;48.71
9525;BME280;15940;48.734;9.112;2023-02-28T13:01:48;97195.31;;;4.83;50.72
9525;BME280;15940;48.734;9.112;2023-02-28T13:04:52;97197.25;;;4.45;50.15
9525;BME280;15940;48.734;9.112;2023-02-28T13:07:54;97194.25;;;4.05;52.07
9525;BME280;15940;48.734;9.112;2023-02-28T13:10:40;97186.03;;;4.37;52.44
9525;BME280;15940;48.734;9.112;2023-02-28T13:13:15;97179.03;;;4.65;51.08
9525;BME280;15940;48.734;9.112;2023-02-28T13:16:02;97185.00;;;4.95;50.40
9525;BME280;15940;48.734;9.112;2023-02-28T13:18:35;97194.59;;;5.18;49.67
9525;BME280;15940;48.734;9.112;2023-02-28T13:21:06;97189.84;;;4.87;48.38
9525;BME280;15940;48.734;9.112;2023-02-28T13:23:58;97183.22;;;4.28;50.72
9525;BME280;15940;48.734;9.112;2023-02-28T13:27:33;97190.53;;;4.27;51.52
9525;BME280;15940;48.734;9.112;2023-02-28T13:33:30;97179.78;;;4.66;49.94
9525;BME280;15940;48.734;9.112;2023-02-28T13:36:10;97180.19;;;4.77;50.39
9525;BME280;15940;48.734;9.112;2023-02-28T13:38:40;97189.44;;;4.76;51.08
9525;BME280;15940;48.734;9.112;2023-02-28T13:41:47;97180.59;;;4.88;49.40
9525;BME280;15940;48.734;9.112;2023-02-28T13:44:19;97189.41;;;4.88;50.03